ADDS METAR Data INFO
IDs: Format: Raw Decoded Include TAF

Data at: 1716 UTC 23 Oct 2017

KUIN 231654Z AUTO 26008KT 10SM CLR 18/06 A2985 RMK AO2 SLP106 T01780056
KUIN 231554Z AUTO 24006KT 10SM CLR 16/07 A2988 RMK AO2 SLP118 T01560067
KUIN 231454Z AUTO 23007KT 10SM CLR 13/07 A2991 RMK AO2 SLP128 T01330067 55016
KUIN 231354Z AUTO 29007KT 10SM CLR 09/07 A2990 RMK AO2 SLP124 T00940067
KUIN 231254Z AUTO 28006KT 10SM CLR 09/07 A2993 RMK AO2 SLP136 T00890072
KUIN 231154Z AUTO 17006KT 10SM CLR 09/07 A2996 RMK AO2 SLP146 70004 T00890072 10106 20089 53008
KUIN 231054Z AUTO 28005KT 10SM CLR 09/08 A2995 RMK AO2 SLP142 T00890078
KUIN 230954Z AUTO 26004KT 10SM CLR 09/08 A2994 RMK AO2 SLP138 T00940078
KUIN 230854Z AUTO 34005KT 10SM CLR 10/09 A2994 RMK AO2 SLP137 T01000089 58031
KUIN 230754Z AUTO 31008KT 10SM BKN120 11/09 A2998 RMK AO2 SLP153 T01060094
KUIN 230654Z AUTO 29004KT 10SM FEW110 10/09 A3001 RMK AO2 SLP164 T01000094
KUIN 230554Z AUTO 18003KT 10SM CLR 10/09 A3003 RMK AO2 SLP169 T01000094 10111 20100 402000100 56012
KUIN 230454Z AUTO 00000KT 10SM CLR 11/10 A3004 RMK AO2 SLP172 T01060100
KUIN 230354Z AUTO 00000KT 10SM CLR 11/10 A3005 RMK AO2 SLP174 T01060100
KUIN 230254Z AUTO 00000KT 10SM CLR 11/10 A3006 RMK AO2 SLP181 T01060100 56002
KUIN 230154Z AUTO 34004KT 10SM CLR 11/10 A3006 RMK AO2 SLP180 T01110100
KUIN 230054Z AUTO 33005KT 10SM SCT110 11/10 A3006 RMK AO2 SLP181 T01110100
KUIN 222354Z AUTO 31006KT 10SM BKN110 11/10 A3007 RMK AO2 RAB07E50 SLP182 P0001 60001 T01110100 10128 20111 58000
KUIN 222254Z AUTO 34003KT 10SM FEW075 SCT085 OVC110 12/10 A3007 RMK AO2 RAE30 SLP183 P0000 T01170100
KUIN 222154Z AUTO 33006KT 10SM -RA OVC100 12/09 A3008 RMK AO2 SLP184 P0000 T01220094
KUIN 222054Z AUTO 33008KT 10SM -RA SCT070 OVC085 12/09 A3007 RMK AO2 RAB03 SLP181 P0000 60000 T01220094 51008
KUIN 221954Z AUTO 32010KT 10SM OVC060 12/09 A3007 RMK AO2 SLP179 T01220089
KUIN 221854Z AUTO 33009KT 10SM OVC049 13/08 A3006 RMK AO2 SLP175 T01280083
KUIN 221754Z AUTO 35007KT 10SM OVC040 12/09 A3005 RMK AO2 SLP171 60003 T01220089 10128 20117 51021
KUIN 221654Z AUTO 34016G22KT 10SM SCT019 OVC034 12/09 A3004 RMK AO2 RAE21 SLP170 P0000 T01220094
KUIN 221628Z AUTO 33016KT 10SM FEW015 SCT019 OVC030 12/09 A3003 RMK AO2 RAE21 P0000 T01220094
KUIN 221618Z AUTO 34012KT 10SM -RA BKN015 OVC028 12/10 A3003 RMK AO2 P0000 T01170100
KUIN 221554Z AUTO 33015KT 10SM -RA OVC013 12/11 A3001 RMK AO2 RAB35 SLP159 P0000 T01220106
KUIN 221507Z AUTO 32011KT 10SM BKN014 OVC024 12/11 A2999 RMK AO2 T01220106
KUIN 221454Z AUTO 33013KT 10SM SCT012 BKN024 OVC055 13/11 A2998 RMK AO2 RAE25 SLP148 P0001 60003 T01280111 51011
KUIN 221449Z AUTO 33013KT 10SM FEW010 BKN024 BKN055 13/11 A2998 RMK AO2 RAE25 PRESRR P0001
KUIN 221354Z AUTO 34009KT 9SM -RA SCT008 OVC055 12/11 A2997 RMK AO2 RAB1255 SLP145 P0001 T01220111
KUIN 221347Z AUTO 33010KT 10SM -RA SCT008 BKN022 OVC055 12/11 A2997 RMK AO2 RAB1255 P0001 T01220111
KUIN 221254Z AUTO 32011KT 10SM OVC007 12/11 A2995 RMK AO2 RAE45 SLP137 P0001 T01220111
KUIN 221154Z AUTO 34009KT 7SM -RA OVC006 13/12 A2992 RMK AO2 LTG DSNT NE TSE11 SLP127 P0015 60056 70061 T01280122 10200 20128 51013
KUIN 221150Z AUTO 34008KT 7SM RA BKN006 OVC070 13/12 A2991 RMK AO2 LTG DSNT NE TSE11 P0015
KUIN 221129Z AUTO 33010G19KT 7SM VCTS RA BKN006 BKN045 OVC060 13/12 A2993 RMK AO2 TSE11 P0012 T01280122
KUIN 221111Z AUTO 32012KT 4SM RA BR FEW005 BKN033 OVC060 13/12 A2991 RMK AO2 LTG DSNT N TSE11 P0008 T01280122
KUIN 221056Z AUTO 33014KT 2SM +TSRA BR SCT006 BKN027 OVC055 13/12 A2992 RMK AO2 P0001 T01280122
KUIN 221054Z AUTO 34013KT 1 3/4SM +TSRA BR BKN006 BKN025 OVC050 13/12 A2992 RMK AO2 PK WND 30027/1007 TSB14E38B50 SLP127 P0028 T01280122
KUIN 221038Z AUTO 34010G20KT 4SM RA BR BKN006 OVC036 13/12 A2992 RMK AO2 PK WND 30027/1007 LTG DSNT SE AND S TSB14E38 P0012 T01330122
KUIN 221034Z AUTO 33011G20KT 4SM +TSRA BR SCT006 BKN018 OVC036 13/12 A2991 RMK AO2 PK WND 30027/1007 TSB14 P0012 T01330122
KUIN 221020Z AUTO 33019G25KT 6SM -TSRA BR BKN006 OVC034 13/12 A2989 RMK AO2 PK WND 30027/1007 LTG DSNT SW TSB14 P0007 T01330122
KUIN 221008Z AUTO 31021G27KT 6SM -RA BR OVC006 14/13 A2990 RMK AO2 PK WND 30027/1007 LTG DSNT S AND SW P0004 T01390133
KUIN 220959Z AUTO 33016G24KT 2 1/2SM +RA BR BKN006 BKN011 OVC031 16/15 A2989 RMK AO2 LTG DSNT SW P0004 T01560150
KUIN 220954Z AUTO 33010KT 3SM VCTS +RA BR BKN008 BKN023 OVC031 16/16 A2988 RMK AO2 LTG DSNT S SLP111 P0011 T01610156
KUIN 220952Z AUTO 34008KT 3SM VCTS RA BR BKN008 BKN023 OVC031 16/16 A2988 RMK AO2 LTG DSNT S P0010
KUIN 220935Z AUTO 32013G20KT 10SM VCTS -RA FEW009 OVC023 16/15 A2987 RMK AO2 LTG DSNT S P0003 T01610150
KUIN 220854Z AUTO 31014G21KT 10SM -RA FEW016 BKN021 OVC029 17/16 A2987 RMK AO2 WSHFT 0829 LTG DSNT N RAB35 SLP108 P0001 60002 T01720156 55002
KUIN 220843Z AUTO 30015G24KT 10SM -RA FEW017 BKN022 OVC070 17/16 A2986 RMK AO2 WSHFT 0829 LTG DSNT N RAB35 P0000 T01720156
KUIN 220754Z AUTO 15010KT 10SM FEW060 BKN080 OVC110 20/16 A2983 RMK AO2 LTG DSNT SW AND W RAE02 SLP094 P0000 T02000161
KUIN 220654Z AUTO 16013G22KT 10SM -RA FEW043 SCT050 BKN110 20/17 A2985 RMK AO2 RAE20B48 SLP101 P0001 T02000167
KUIN 220554Z AUTO 16011KT 7SM RA BKN100 20/17 A2987 RMK AO2 LTG DSNT S RAE03B35 SLP110 P0001 60005 T02000167 10244 20200 402670172 56017